sensor_id;sensor_type;location;lat;lon;timestamp;pressure;altitude;pressure_sealevel;temperature
70819;BMP280;58439;51.046;13.692;2022-07-29T00:01:41;100326.81;;;18.05
70819;BMP280;58439;51.046;13.692;2022-07-29T00:04:09;100331.94;;;17.95
70819;BMP280;58439;51.046;13.692;2022-07-29T00:06:36;100325.31;;;17.81
70819;BMP280;58439;51.046;13.692;2022-07-29T00:09:03;100329.47;;;17.77
70819;BMP280;58439;51.046;13.692;2022-07-29T00:11:30;100326.75;;;17.72
70819;BMP280;58439;51.046;13.692;2022-07-29T00:13:58;100329.06;;;17.68
70819;BMP280;58439;51.046;13.692;2022-07-29T00:16:25;100329.28;;;17.67
70819;BMP280;58439;51.046;13.692;2022-07-29T00:18:52;100331.81;;;17.62
70819;BMP280;58439;51.046;13.692;2022-07-29T00:21:19;100334.44;;;17.73
70819;BMP280;58439;51.046;13.692;2022-07-29T00:23:46;100318.88;;;17.77
70819;BMP280;58439;51.046;13.692;2022-07-29T00:26:13;100325.50;;;17.74
70819;BMP280;58439;51.046;13.692;2022-07-29T00:28:40;100308.38;;;17.65
70819;BMP280;58439;51.046;13.692;2022-07-29T00:31:07;100306.66;;;17.59
70819;BMP280;58439;51.046;13.692;2022-07-29T00:33:35;100309.06;;;17.61
70819;BMP280;58439;51.046;13.692;2022-07-29T00:36:02;100300.06;;;17.62
70819;BMP280;58439;51.046;13.692;2022-07-29T00:38:29;100303.22;;;17.59
70819;BMP280;58439;51.046;13.692;2022-07-29T00:40:56;100298.84;;;17.53
70819;BMP280;58439;51.046;13.692;2022-07-29T00:43:23;100301.16;;;17.49
70819;BMP280;58439;51.046;13.692;2022-07-29T00:45:50;100303.47;;;17.45
70819;BMP280;58439;51.046;13.692;2022-07-29T00:48:17;100306.91;;;17.46
70819;BMP280;58439;51.046;13.692;2022-07-29T00:50:44;100300.84;;;17.45
70819;BMP280;58439;51.046;13.692;2022-07-29T00:53:12;100299.78;;;17.46
70819;BMP280;58439;51.046;13.692;2022-07-29T00:55:39;100294.50;;;17.46
70819;BMP280;58439;51.046;13.692;2022-07-29T00:58:28;100291.75;;;17.41
70819;BMP280;58439;51.046;13.692;2022-07-29T01:01:20;100280.25;;;17.36
70819;BMP280;58439;51.046;13.692;2022-07-29T01:03:48;100274.53;;;17.27
70819;BMP280;58439;51.046;13.692;2022-07-29T01:06:19;100271.06;;;17.27
70819;BMP280;58439;51.046;13.692;2022-07-29T01:08:48;100276.16;;;17.28
70819;BMP280;58439;51.046;13.692;2022-07-29T01:11:16;100269.72;;;17.24
70819;BMP280;58439;51.046;13.692;2022-07-29T01:13:45;100280.41;;;17.17
70819;BMP280;58439;51.046;13.692;2022-07-29T01:16:39;100268.81;;;17.19
70819;BMP280;58439;51.046;13.692;2022-07-29T01:19:45;100272.47;;;17.29
70819;BMP280;58439;51.046;13.692;2022-07-29T01:22:27;100266.63;;;17.27
70819;BMP280;58439;51.046;13.692;2022-07-29T01:28:47;100258.03;;;17.20
70819;BMP280;58439;51.046;13.692;2022-07-29T01:31:27;100257.09;;;17.03
70819;BMP280;58439;51.046;13.692;2022-07-29T01:34:47;100261.50;;;16.97
70819;BMP280;58439;51.046;13.692;2022-07-29T01:37:49;100260.13;;;16.95
70819;BMP280;58439;51.046;13.692;2022-07-29T01:41:28;100252.75;;;16.97
70819;BMP280;58439;51.046;13.692;2022-07-29T01:48:20;100253.47;;;16.80
70819;BMP280;58439;51.046;13.692;2022-07-29T01:51:33;100254.03;;;16.82
70819;BMP280;58439;51.046;13.692;2022-07-29T01:54:43;100253.94;;;16.89
70819;BMP280;58439;51.046;13.692;2022-07-29T01:57:45;100254.84;;;16.83
70819;BMP280;58439;51.046;13.692;2022-07-29T02:00:30;100250.69;;;16.75
70819;BMP280;58439;51.046;13.692;2022-07-29T02:03:11;100257.97;;;16.68
70819;BMP280;58439;51.046;13.692;2022-07-29T02:05:42;100257.03;;;16.74
70819;BMP280;58439;51.046;13.692;2022-07-29T02:08:13;100253.13;;;16.77
70819;BMP280;58439;51.046;13.692;2022-07-29T02:10:42;100252.41;;;16.81
70819;BMP280;58439;51.046;13.692;2022-07-29T02:13:12;100256.09;;;16.80
70819;BMP280;58439;51.046;13.692;2022-07-29T02:15:42;100251.38;;;16.82
70819;BMP280;58439;51.046;13.692;2022-07-29T02:18:17;100250.16;;;16.73
70819;BMP280;58439;51.046;13.692;2022-07-29T02:20:49;100250.72;;;16.64
70819;BMP280;58439;51.046;13.692;2022-07-29T02:23:20;100242.31;;;16.55
70819;BMP280;58439;51.046;13.692;2022-07-29T02:25:51;100238.53;;;16.51
70819;BMP280;58439;51.046;13.692;2022-07-29T02:28:24;100238.41;;;16.46
70819;BMP280;58439;51.046;13.692;2022-07-29T02:30:55;100238.88;;;16.43
70819;BMP280;58439;51.046;13.692;2022-07-29T02:33:39;100240.13;;;16.40
70819;BMP280;58439;51.046;13.692;2022-07-29T02:36:11;100240.72;;;16.42
70819;BMP280;58439;51.046;13.692;2022-07-29T02:38:46;100233.72;;;16.48
70819;BMP280;58439;51.046;13.692;2022-07-29T02:41:51;100236.22;;;16.66
70819;BMP280;58439;51.046;13.692;2022-07-29T02:44:39;100240.00;;;16.70
70819;BMP280;58439;51.046;13.692;2022-07-29T02:47:40;100230.16;;;16.77
70819;BMP280;58439;51.046;13.692;2022-07-29T02:50:21;100238.97;;;16.71
70819;BMP280;58439;51.046;13.692;2022-07-29T02:52:57;100241.84;;;16.70
70819;BMP280;58439;51.046;13.692;2022-07-29T02:55:53;100238.31;;;16.76
70819;BMP280;58439;51.046;13.692;2022-07-29T02:58:49;100236.56;;;16.81
70819;BMP280;58439;51.046;13.692;2022-07-29T03:01:35;100242.66;;;16.82
70819;BMP280;58439;51.046;13.692;2022-07-29T03:04:23;100238.69;;;16.79
70819;BMP280;58439;51.046;13.692;2022-07-29T03:07:13;100243.03;;;16.74
70819;BMP280;58439;51.046;13.692;2022-07-29T03:10:10;100237.38;;;16.70
70819;BMP280;58439;51.046;13.692;2022-07-29T03:13:05;100231.97;;;16.65
70819;BMP280;58439;51.046;13.692;2022-07-29T03:20:25;100233.56;;;16.54
70819;BMP280;58439;51.046;13.692;2022-07-29T03:26:11;100233.16;;;16.69
70819;BMP280;58439;51.046;13.692;2022-07-29T03:28:41;100239.34;;;16.63
70819;BMP280;58439;51.046;13.692;2022-07-29T03:31:08;100239.66;;;16.67
70819;BMP280;58439;51.046;13.692;2022-07-29T03:33:35;100227.75;;;16.64
70819;BMP280;58439;51.046;13.692;2022-07-29T03:36:10;100222.22;;;16.66
70819;BMP280;58439;51.046;13.692;2022-07-29T03:39:31;100226.97;;;16.64
70819;BMP280;58439;51.046;13.692;2022-07-29T03:42:28;100225.75;;;16.60
70819;BMP280;58439;51.046;13.692;2022-07-29T03:45:37;100232.09;;;16.59
70819;BMP280;58439;51.046;13.692;2022-07-29T03:48:52;100218.34;;;16.57
70819;BMP280;58439;51.046;13.692;2022-07-29T03:51:30;100221.97;;;16.55
70819;BMP280;58439;51.046;13.692;2022-07-29T03:54:02;100224.53;;;16.62
70819;BMP280;58439;51.046;13.692;2022-07-29T03:56:42;100225.31;;;16.63
70819;BMP280;58439;51.046;13.692;2022-07-29T03:59:11;100216.50;;;16.57
70819;BMP280;58439;51.046;13.692;2022-07-29T04:01:56;100221.53;;;16.59
70819;BMP280;58439;51.046;13.692;2022-07-29T04:04:45;100224.63;;;16.67
70819;BMP280;58439;51.046;13.692;2022-07-29T04:07:47;100226.91;;;16.75
70819;BMP280;58439;51.046;13.692;2022-07-29T04:10:17;100227.59;;;16.82
70819;BMP280;58439;51.046;13.692;2022-07-29T04:13:01;100235.06;;;16.97
70819;BMP280;58439;51.046;13.692;2022-07-29T04:16:44;100231.28;;;17.05
70819;BMP280;58439;51.046;13.692;2022-07-29T04:24:33;100231.69;;;17.25
70819;BMP280;58439;51.046;13.692;2022-07-29T04:27:53;100232.22;;;17.39
70819;BMP280;58439;51.046;13.692;2022-07-29T04:31:44;100236.03;;;17.60
70819;BMP280;58439;51.046;13.692;2022-07-29T04:35:20;100233.41;;;17.76
70819;BMP280;58439;51.046;13.692;2022-07-29T04:41:54;100232.06;;;17.45
70819;BMP280;58439;51.046;13.692;2022-07-29T05:01:27;100237.53;;;17.84
70819;BMP280;58439;51.046;13.692;2022-07-29T05:25:24;100222.16;;;17.98
70819;BMP280;58439;51.046;13.692;2022-07-29T05:29:10;100229.28;;;18.14
70819;BMP280;58439;51.046;13.692;2022-07-29T05:38:39;100235.25;;;19.25
70819;BMP280;58439;51.046;13.692;2022-07-29T05:57:32;100228.59;;;19.77
70819;BMP280;58439;51.046;13.692;2022-07-29T06:00:20;100232.47;;;19.91
70819;BMP280;58439;51.046;13.692;2022-07-29T06:02:47;100234.81;;;19.87
70819;BMP280;58439;51.046;13.692;2022-07-29T06:05:27;100230.28;;;19.88
70819;BMP280;58439;51.046;13.692;2022-07-29T06:07:56;100232.53;;;20.06
70819;BMP280;58439;51.046;13.692;2022-07-29T06:10:35;100238.38;;;20.03
70819;BMP280;58439;51.046;13.692;2022-07-29T06:13:04;100234.00;;;20.24
70819;BMP280;58439;51.046;13.692;2022-07-29T06:16:13;100240.00;;;20.46
70819;BMP280;58439;51.046;13.692;2022-07-29T06:19:57;100230.56;;;20.76
70819;BMP280;58439;51.046;13.692;2022-07-29T06:24:01;100226.84;;;20.77
70819;BMP280;58439;51.046;13.692;2022-07-29T06:26:36;100234.91;;;21.02
70819;BMP280;58439;51.046;13.692;2022-07-29T06:29:07;100232.28;;;21.28
70819;BMP280;58439;51.046;13.692;2022-07-29T06:31:43;100228.31;;;21.35
70819;BMP280;58439;51.046;13.692;2022-07-29T06:34:14;100235.47;;;21.25
70819;BMP280;58439;51.046;13.692;2022-07-29T06:36:44;100244.03;;;21.21
70819;BMP280;58439;51.046;13.692;2022-07-29T06:39:17;100241.34;;;21.32
70819;BMP280;58439;51.046;13.692;2022-07-29T06:41:50;100239.25;;;21.64
70819;BMP280;58439;51.046;13.692;2022-07-29T06:44:24;100238.97;;;21.91
70819;BMP280;58439;51.046;13.692;2022-07-29T06:46:54;100246.44;;;22.09
70819;BMP280;58439;51.046;13.692;2022-07-29T06:49:24;100246.97;;;22.16
70819;BMP280;58439;51.046;13.692;2022-07-29T06:51:56;100245.66;;;22.04
70819;BMP280;58439;51.046;13.692;2022-07-29T06:54:27;100243.25;;;21.92
70819;BMP280;58439;51.046;13.692;2022-07-29T06:56:57;100246.97;;;22.06
70819;BMP280;58439;51.046;13.692;2022-07-29T07:00:04;100247.19;;;22.30
70819;BMP280;58439;51.046;13.692;2022-07-29T07:03:01;100255.84;;;22.66
70819;BMP280;58439;51.046;13.692;2022-07-29T07:06:13;100256.25;;;22.39
70819;BMP280;58439;51.046;13.692;2022-07-29T07:11:12;100253.50;;;22.65
70819;BMP280;58439;51.046;13.692;2022-07-29T07:15:24;100249.63;;;22.86
70819;BMP280;58439;51.046;13.692;2022-07-29T07:18:10;100251.25;;;22.87
70819;BMP280;58439;51.046;13.692;2022-07-29T07:21:59;100250.50;;;23.21
70819;BMP280;58439;51.046;13.692;2022-07-29T07:24:42;100249.53;;;23.45
70819;BMP280;58439;51.046;13.692;2022-07-29T07:27:31;100246.78;;;23.56
70819;BMP280;58439;51.046;13.692;2022-07-29T07:30:38;100244.41;;;23.83
70819;BMP280;58439;51.046;13.692;2022-07-29T07:34:34;100246.06;;;24.03
70819;BMP280;58439;51.046;13.692;2022-07-29T07:38:02;100241.03;;;24.25
70819;BMP280;58439;51.046;13.692;2022-07-29T07:42:21;100239.06;;;24.55
70819;BMP280;58439;51.046;13.692;2022-07-29T07:45:58;100239.63;;;24.70
70819;BMP280;58439;51.046;13.692;2022-07-29T07:49:18;100239.44;;;24.85
70819;BMP280;58439;51.046;13.692;2022-07-29T07:56:03;100230.53;;;25.09
70819;BMP280;58439;51.046;13.692;2022-07-29T07:58:52;100229.31;;;25.34
70819;BMP280;58439;51.046;13.692;2022-07-29T08:12:08;100216.44;;;26.09
70819;BMP280;58439;51.046;13.692;2022-07-29T08:16:53;100204.09;;;26.22
70819;BMP280;58439;51.046;13.692;2022-07-29T08:26:42;100212.19;;;27.34
70819;BMP280;58439;51.046;13.692;2022-07-29T09:05:24;100193.59;;;29.44
70819;BMP280;58439;51.046;13.692;2022-07-29T09:44:57;100156.66;;;30.28
70819;BMP280;58439;51.046;13.692;2022-07-29T09:59:51;100167.78;;;31.16
70819;BMP280;58439;51.046;13.692;2022-07-29T10:42:37;100129.53;;;32.85
70819;BMP280;58439;51.046;13.692;2022-07-29T13:23:47;100050.31;;;34.90
70819;BMP280;58439;51.046;13.692;2022-07-29T13:40:46;100032.84;;;36.63
70819;BMP280;58439;51.046;13.692;2022-07-29T13:54:22;100035.75;;;36.26
70819;BMP280;58439;51.046;13.692;2022-07-29T14:02:31;100029.44;;;42.84
70819;BMP280;58439;51.046;13.692;2022-07-29T14:05:33;100039.97;;;44.08
70819;BMP280;58439;51.046;13.692;2022-07-29T14:08:41;100031.81;;;42.11
70819;BMP280;58439;51.046;13.692;2022-07-29T14:11:59;100030.59;;;40.79
70819;BMP280;58439;51.046;13.692;2022-07-29T14:15:43;100030.38;;;42.94
70819;BMP280;58439;51.046;13.692;2022-07-29T14:19:26;100023.28;;;44.12
70819;BMP280;58439;51.046;13.692;2022-07-29T14:22:25;100022.63;;;43.05
70819;BMP280;58439;51.046;13.692;2022-07-29T14:25:33;100015.47;;;42.04
70819;BMP280;58439;51.046;13.692;2022-07-29T14:28:27;100006.38;;;42.26
70819;BMP280;58439;51.046;13.692;2022-07-29T14:31:20;100021.09;;;42.36
70819;BMP280;58439;51.046;13.692;2022-07-29T14:34:49;100027.13;;;40.75
70819;BMP280;58439;51.046;13.692;2022-07-29T14:38:34;100016.91;;;40.76
70819;BMP280;58439;51.046;13.692;2022-07-29T14:41:45;100020.44;;;42.12
70819;BMP280;58439;51.046;13.692;2022-07-29T14:44:44;100023.94;;;39.75
70819;BMP280;58439;51.046;13.692;2022-07-29T14:47:43;100012.41;;;37.69
70819;BMP280;58439;51.046;13.692;2022-07-29T14:50:47;100019.25;;;35.58
70819;BMP280;58439;51.046;13.692;2022-07-29T14:54:22;100024.38;;;34.96
70819;BMP280;58439;51.046;13.692;2022-07-29T14:58:05;100024.06;;;34.71
70819;BMP280;58439;51.046;13.692;2022-07-29T15:02:13;100025.13;;;33.91
70819;BMP280;58439;51.046;13.692;2022-07-29T15:54:04;99983.28;;;31.47
70819;BMP280;58439;51.046;13.692;2022-07-29T16:28:16;99954.06;;;29.67
70819;BMP280;58439;51.046;13.692;2022-07-29T16:31:39;99972.16;;;29.66
70819;BMP280;58439;51.046;13.692;2022-07-29T16:34:51;99969.28;;;29.51
70819;BMP280;58439;51.046;13.692;2022-07-29T16:38:22;99964.09;;;29.25
70819;BMP280;58439;51.046;13.692;2022-07-29T16:42:15;99969.28;;;29.09
70819;BMP280;58439;51.046;13.692;2022-07-29T16:46:27;99959.53;;;28.96
70819;BMP280;58439;51.046;13.692;2022-07-29T16:55:26;99961.84;;;28.77
70819;BMP280;58439;51.046;13.692;2022-07-29T17:08:35;99963.16;;;28.71
70819;BMP280;58439;51.046;13.692;2022-07-29T17:12:50;99952.19;;;28.76
70819;BMP280;58439;51.046;13.692;2022-07-29T17:16:57;99955.38;;;28.78
70819;BMP280;58439;51.046;13.692;2022-07-29T17:21:17;99958.19;;;28.81
70819;BMP280;58439;51.046;13.692;2022-07-29T17:47:30;99943.06;;;28.30
70819;BMP280;58439;51.046;13.692;2022-07-29T17:52:02;99937.84;;;28.25
70819;BMP280;58439;51.046;13.692;2022-07-29T17:55:29;99953.22;;;28.16
70819;BMP280;58439;51.046;13.692;2022-07-29T18:02:44;99936.00;;;28.00
70819;BMP280;58439;51.046;13.692;2022-07-29T18:05:56;99943.94;;;27.87
70819;BMP280;58439;51.046;13.692;2022-07-29T18:10:26;99947.13;;;27.72
70819;BMP280;58439;51.046;13.692;2022-07-29T18:19:22;99952.22;;;27.48
70819;BMP280;58439;51.046;13.692;2022-07-29T18:31:38;99970.63;;;27.06
70819;BMP280;58439;51.046;13.692;2022-07-29T18:35:30;99967.34;;;26.70
70819;BMP280;58439;51.046;13.692;2022-07-29T18:40:03;99969.84;;;26.35
70819;BMP280;58439;51.046;13.692;2022-07-29T18:43:59;99969.28;;;26.16
70819;BMP280;58439;51.046;13.692;2022-07-29T18:47:56;99962.63;;;26.13
70819;BMP280;58439;51.046;13.692;2022-07-29T19:02:40;99977.97;;;25.63
70819;BMP280;58439;51.046;13.692;2022-07-29T19:05:35;99976.00;;;25.69
70819;BMP280;58439;51.046;13.692;2022-07-29T19:09:30;99974.78;;;25.75
70819;BMP280;58439;51.046;13.692;2022-07-29T19:16:47;99989.91;;;25.57
70819;BMP280;58439;51.046;13.692;2022-07-29T19:20:49;99993.31;;;25.49
70819;BMP280;58439;51.046;13.692;2022-07-29T19:37:27;100011.75;;;25.37
70819;BMP280;58439;51.046;13.692;2022-07-29T19:41:43;100013.63;;;25.23
70819;BMP280;58439;51.046;13.692;2022-07-29T19:46:31;100021.47;;;25.05
70819;BMP280;58439;51.046;13.692;2022-07-29T19:51:31;100010.88;;;25.00
70819;BMP280;58439;51.046;13.692;2022-07-29T19:56:19;100018.09;;;24.86
70819;BMP280;58439;51.046;13.692;2022-07-29T20:01:20;100024.63;;;24.80
70819;BMP280;58439;51.046;13.692;2022-07-29T20:31:33;100024.13;;;24.45
70819;BMP280;58439;51.046;13.692;2022-07-29T20:35:52;100021.75;;;24.44
70819;BMP280;58439;51.046;13.692;2022-07-29T20:44:26;100026.38;;;24.20
70819;BMP280;58439;51.046;13.692;2022-07-29T21:07:50;100034.63;;;24.04
70819;BMP280;58439;51.046;13.692;2022-07-29T21:31:57;100041.16;;;23.74
70819;BMP280;58439;51.046;13.692;2022-07-29T21:36:08;100045.25;;;23.67
70819;BMP280;58439;51.046;13.692;2022-07-29T21:40:51;100035.13;;;23.64
70819;BMP280;58439;51.046;13.692;2022-07-29T21:59:04;100028.88;;;23.55
70819;BMP280;58439;51.046;13.692;2022-07-29T22:41:18;100031.63;;;23.21
70819;BMP280;58439;51.046;13.692;2022-07-29T22:53:05;100022.63;;;23.11
70819;BMP280;58439;51.046;13.692;2022-07-29T22:57:27;100024.00;;;23.09
70819;BMP280;58439;51.046;13.692;2022-07-29T23:05:39;100017.38;;;23.06
70819;BMP280;58439;51.046;13.692;2022-07-29T23:24:25;100027.81;;;23.03
70819;BMP280;58439;51.046;13.692;2022-07-29T23:38:26;100032.06;;;22.70
70819;BMP280;58439;51.046;13.692;2022-07-29T23:58:43;100048.59;;;21.78
